Flight Track Log - Related Links

Times and Time Zones

All times are in EDT time to prevent confusion due to time zone crossing. See the TSO558 flight status page for this flight to view local times or setup timezone preferences in your user account.

Time Position Orientation Groundspeed Altitude Reporting Facility
EDT Latitude Longitude Course Direction KTS MPH feet Rate Location/Type
Thu 07:45:01 PM 33.9436 -118.4853 338° Northwest 174 200 2,000  Level Los Angeles Center
Thu 07:46:03 PM 33.9394 -118.5492 266° West 189 217 3,300 1,065 Climbing Los Angeles Center
Thu 07:47:05 PM 33.9331 -118.6319 265° West 242 278 4,200 1,500 Climbing Los Angeles Center
Thu 07:48:07 PM 33.9553 -118.7136 288° West 272 313 6,400 1,984 Climbing Los Angeles Center
Thu 07:49:09 PM 34.0356 -118.6981 North 296 341 8,300 1,248 Climbing Los Angeles Center
Thu 07:50:00 PM 34.4923 -118.7045 338° Northwest  Level FlightAware Approximate
Thu 07:50:12 PM 34.1075 -118.6575 25° Northeast 319 367 9,000  Level Los Angeles Center
Thu 07:51:14 PM 34.1897 -118.6189 21° North 316 364 10,000 1,742 Climbing Los Angeles Center
Thu 07:52:16 PM 34.2944 -118.6219 359° North 316 364 12,600 2,129 Climbing Los Angeles Center
Thu 07:53:18 PM 34.3797 -118.6625 339° North 326 375 14,400 1,403 Climbing Los Angeles Center
Thu 07:54:20 PM 34.4725 -118.7067 339° North 360 414 15,500 919 Climbing Los Angeles Center
Thu 07:55:22 PM 34.5775 -118.7564 339° North 407 468 16,300 1,161 Climbing Los Angeles Center
Thu 07:56:24 PM 34.6925 -118.8097 339° North 442 509 17,900 1,645 Climbing Los Angeles Center
Thu 07:57:26 PM 34.8100 -118.8636 339° North 451 519 19,700 1,776 Climbing Los Angeles Center
Thu 07:58:29 PM 34.9633 -118.9167 344° North 469 540 21,600 1,571 Climbing Los Angeles Center
Thu 07:59:32 PM 35.0928 -118.9631 344° North 482 555 23,000 1,296 Climbing Los Angeles Center
Thu 08:00:34 PM 35.2267 -119.0075 345° North 500 575 24,300 1,210 Climbing Los Angeles Center
Thu 08:01:36 PM 35.3619 -119.0550 344° North 507 583 25,500 1,113 Climbing Los Angeles Center
Thu 08:02:38 PM 35.4989 -119.0986 345° North 510 587 26,600 1,152 Climbing Los Angeles Center
Thu 08:03:41 PM 35.6714 -119.1228 354° North 523 602 27,900 1,317 Climbing Los Angeles Center
Thu 08:04:41 PM 35.8183 -119.1411 354° North 532 612 29,300 1,328 Climbing Oakland Center
Thu 08:05:43 PM 35.9650 -119.1622 353° North 533 613 30,600 1,171 Climbing Oakland Center
Thu 08:06:44 PM 36.1097 -119.1811 354° North 529 609 31,700 984 Climbing Oakland Center
Thu 08:07:45 PM 36.2531 -119.1992 354° North 525 604 32,600 775 Climbing Oakland Center
Thu 08:09:42 PM 36.5456 -119.2353 354° North 526 605 34,000 469 Climbing Salt Lake Center
Thu 08:10:44 PM 36.6933 -119.2569 353° North 527 606 34,000  Level Salt Lake Center
Thu 08:11:46 PM 36.8414 -119.2775 354° North 531 611 34,000 -47 Level Salt Lake Center
Thu 08:12:52 PM 37.0131 -119.3069 352° North 533 613 33,900 -47 Descending Oakland Center
Thu 08:13:54 PM 37.1614 -119.3256 354° North 537 618 33,900  Level Oakland Center
Thu 08:14:55 PM 37.3089 -119.3450 354° North 538 619 33,900  Level Oakland Center
Thu 08:15:56 PM 37.4586 -119.3675 353° North 542 624 33,900 49 Level Oakland Center
Thu 08:16:57 PM 37.6169 -119.3861 355° North 537 618 34,000 49 Climbing Oakland Center
Thu 08:17:59 PM 37.7669 -119.4050 354° North 541 623 34,000  Level Oakland Center
Thu 08:19:00 PM 37.9161 -119.4264 354° North 542 624 34,000  Level Oakland Center
Thu 08:20:01 PM 38.0653 -119.4464 354° North 539 620 34,000  Level Oakland Center
Thu 08:21:03 PM 38.2150 -119.4678 354° North 542 624 34,000  Level Oakland Center
Thu 08:22:04 PM 38.3642 -119.4886 354° North 543 625 34,000  Level Oakland Center
Thu 08:23:06 PM 38.5417 -119.5133 354° North 539 620 34,000  Level Oakland Center
Thu 08:24:07 PM 38.6933 -119.5350 354° North 542 624 34,000  Level Oakland Center
Thu 08:25:08 PM 38.8439 -119.5572 353° North 543 625 34,000  Level Oakland Center
Thu 08:26:09 PM 38.9931 -119.5781 354° North 540 621 34,000  Level Oakland Center
Thu 08:27:11 PM 39.1428 -119.5994 354° North 538 619 34,000  Level Oakland Center
Thu 08:28:12 PM 39.2925 -119.6219 353° North 538 619 34,000  Level Oakland Center
Thu 08:29:13 PM 39.4431 -119.6425 354° North 539 620 34,000  Level Oakland Center
Thu 08:30:15 PM 39.5908 -119.6214 North 542 624 34,000  Level Oakland Center
Thu 08:31:16 PM 39.7342 -119.5422 23° Northeast 552 635 34,000  Level Oakland Center
Thu 08:32:17 PM 39.8761 -119.4631 23° Northeast 551 634 34,000  Level Oakland Center
Thu 08:33:18 PM 40.0181 -119.3831 23° Northeast 552 635 34,000  Level Oakland Center
Thu 08:34:20 PM 40.1586 -119.3044 23° Northeast 549 632 34,000  Level Oakland Center
Thu 08:35:21 PM 40.3275 -119.2078 24° Northeast 549 632 34,000  Level Oakland Center
Thu 08:36:22 PM 40.4686 -119.1281 23° Northeast 549 632 34,000  Level Oakland Center
Thu 08:37:24 PM 40.6103 -119.0461 24° Northeast 551 634 34,000  Level Oakland Center
Thu 08:38:25 PM 40.7508 -118.9658 23° Northeast 551 634 34,000  Level Oakland Center
Thu 08:39:34 PM 40.9192 -118.8686 24° Northeast 555 639 34,000  Level Salt Lake Center
Thu 08:40:36 PM 41.0553 -118.7892 24° Northeast 556 640 34,000  Level Salt Lake Center
Thu 08:41:29 PM 41.1678 -118.7231 24° Northeast 558 642 34,000  Level Oakland Center
Thu 08:42:31 PM 41.3250 -118.6311 24° Northeast 554 638 34,000  Level Oakland Center
Thu 08:43:32 PM 41.4622 -118.5511 24° Northeast 558 642 34,000  Level Oakland Center
Thu 08:44:33 PM 41.6211 -118.4581 24° Northeast 557 641 34,000  Level Oakland Center
Thu 08:45:45 PM 41.7806 -118.3608 24° Northeast 554 638 34,000 -45 Level Salt Lake Center
Thu 08:46:47 PM 41.9164 -118.2803 24° Northeast 554 638 33,900  Descending Salt Lake Center
Thu 08:47:49 PM 42.0728 -118.1858 24° Northeast 550 633 34,000 49 Climbing Salt Lake Center
Thu 08:48:50 PM 42.2061 -118.1033 25° Northeast 549 632 34,000  Level Salt Lake Center
Thu 08:49:52 PM 42.3628 -118.0053 25° Northeast 543 625 34,000  Level Salt Lake Center
Thu 08:50:54 PM 42.4953 -117.9250 24° Northeast 544 626 34,000  Level Salt Lake Center
Thu 08:51:56 PM 42.6494 -117.8356 23° Northeast 539 620 34,000  Level Salt Lake Center
Thu 08:52:57 PM 42.7869 -117.7800 17° North 539 620 34,000  Level Salt Lake Center
Thu 08:53:59 PM 42.9256 -117.7261 16° North 539 620 34,000  Level Salt Lake Center
Thu 08:55:01 PM 43.0867 -117.6600 17° North 540 621 34,000  Level Salt Lake Center
Thu 08:56:02 PM 43.2242 -117.6003 18° North 541 623 34,000  Level Salt Lake Center
Thu 08:57:04 PM 43.3836 -117.5314 17° North 538 619 34,000  Level Salt Lake Center
Thu 08:58:06 PM 43.5211 -117.4733 17° North 537 618 34,000  Level Salt Lake Center
Thu 08:59:07 PM 43.6808 -117.4028 18° North 538 619 34,000  Level Salt Lake Center
Thu 09:00:09 PM 43.8186 -117.3442 17° North 539 620 34,000  Level Salt Lake Center
Thu 09:01:10 PM 43.9550 -117.2844 17° North 538 619 34,000  Level Salt Lake Center
Thu 09:02:12 PM 44.1153 -117.2142 17° North 538 619 34,000  Level Salt Lake Center
Thu 09:03:14 PM 44.2528 -117.1547 17° North 539 620 34,000  Level Salt Lake Center
Thu 09:04:15 PM 44.4100 -117.0839 18° North 531 611 34,000  Level Salt Lake Center
Thu 09:05:17 PM 44.5453 -117.0222 18° North 531 611 34,000  Level Salt Lake Center
Thu 09:06:18 PM 44.6814 -116.9633 17° North 530 610 34,000  Level Salt Lake Center
Thu 09:07:22 PM 44.8397 -116.8922 18° North 532 612 34,000  Level Salt Lake Center
Thu 09:08:22 PM 44.9747 -116.8297 18° North 531 611 34,000  Level Salt Lake Center
Thu 09:09:23 PM 45.1103 -116.7681 18° North 531 611 34,000  Level Seattle Center
Thu 09:10:24 PM 45.2675 -116.6975 18° North 529 609 34,000  Level Seattle Center
Thu 09:11:25 PM 45.4028 -116.6344 18° North 531 611 34,000  Level Seattle Center
Thu 09:12:26 PM 45.5375 -116.5728 18° North 531 611 34,000 -49 Level Seattle Center
Thu 09:13:27 PM 45.6694 -116.5128 18° North 530 610 33,900 -49 Descending Seattle Center
Thu 09:14:28 PM 45.8381 -116.4336 18° North 530 610 33,900  Level Seattle Center
Thu 09:15:29 PM 45.9783 -116.3653 19° North 534 615 33,900  Level Seattle Center
Thu 09:16:30 PM 46.1178 -116.2983 18° North 531 611 33,900  Level Seattle Center
Thu 09:17:31 PM 46.2564 -116.2333 18° North 527 606 33,900  Level Seattle Center
Thu 09:18:32 PM 46.3939 -116.1664 19° North 524 603 33,900  Level Seattle Center
Thu 09:19:33 PM 46.5311 -116.1006 18° North 521 600 33,900  Level Seattle Center
Thu 09:20:34 PM 46.6675 -116.0344 18° North 519 597 33,900  Level Seattle Center
Thu 09:21:35 PM 46.8036 -115.9694 18° North 518 596 33,900  Level Seattle Center
Thu 09:22:36 PM 46.9394 -115.9033 18° North 518 596 33,900  Level Seattle Center
Thu 09:23:37 PM 47.0753 -115.8350 19° North 519 597 33,900  Level Seattle Center
Thu 09:24:38 PM 47.2397 -115.7553 18° North 522 601 33,900  Level Seattle Center
Thu 09:25:39 PM 47.3714 -115.6861 20° North 525 604 33,900  Level Seattle Center
Thu 09:26:40 PM 47.5119 -115.6214 17° North 527 606 33,900  Level Seattle Center
Thu 09:27:41 PM 47.6550 -115.5594 16° North 532 612 33,900 49 Level Seattle Center
Thu 09:28:42 PM 47.7961 -115.4925 18° North 531 611 34,000 443 Climbing Seattle Center
Thu 09:29:43 PM 47.9333 -115.4281 17° North 527 606 34,800 443 Climbing Seattle Center
Thu 09:30:44 PM 48.0772 -115.3647 16° North 527 606 34,900 49 Climbing Seattle Center
Thu 09:31:45 PM 48.2186 -115.2994 17° North 529 609 34,900  Level Seattle Center
Thu 09:32:46 PM 48.3589 -115.2353 17° North 526 605 34,900  Level Seattle Center
Thu 09:33:47 PM 48.4997 -115.1697 17° North 526 605 34,900  Level Seattle Center
Thu 09:34:48 PM 48.6392 -115.1050 17° North 525 604 34,900  Level Seattle Center
Thu 09:35:49 PM 48.7786 -115.0392 17° North 524 603 34,900  Level Seattle Center
Thu 09:36:50 PM 48.9181 -114.9739 17° North 524 603 34,900 52 Level Seattle Center
Thu 09:37:45 PM 49.0333 -114.9167 18° North 520 598 35,000 52 Climbing Edmonton Center
Thu 09:38:45 PM 49.1667 -114.8667 14° North 520 598 35,000  Level Edmonton Center
Thu 09:39:45 PM 49.3000 -114.8000 18° North 510 587 35,000  Level Edmonton Center
Thu 09:40:45 PM 49.4500 -114.7500 12° North 510 587 35,000  Level Edmonton Center
Thu 09:41:45 PM 49.5833 -114.6667 22° Northeast 510 587 35,000  Level Edmonton Center
Thu 09:42:45 PM 49.7333 -114.6167 12° North 510 587 35,000  Level Edmonton Center
Thu 09:43:45 PM 49.8667 -114.5833 North 510 587 35,000  Level Edmonton Center
Thu 09:44:45 PM 50.0000 -114.5000 22° Northeast 510 587 35,000  Level Edmonton Center
Thu 09:45:45 PM 50.1333 -114.4500 14° North 510 587 35,000  Level Edmonton Center
Thu 09:46:45 PM 50.2667 -114.4000 13° North 500 575 35,000  Level Edmonton Center
Thu 09:47:45 PM 50.4000 -114.3167 22° Northeast 500 575 35,000  Level Edmonton Center
Thu 09:48:45 PM 50.5333 -114.2667 13° North 500 575 35,000  Level Edmonton Center
Thu 09:49:45 PM 50.6833 -114.2167 12° North 500 575 35,000  Level Edmonton Center
Thu 09:50:45 PM 50.8000 -114.1667 15° North 500 575 35,000  Level Edmonton Center
Thu 09:51:45 PM 50.9500 -114.0833 19° North 500 575 35,000  Level Edmonton Center
Thu 09:52:45 PM 51.0833 -114.0333 13° North 510 587 35,000  Level Edmonton Center
Thu 09:53:45 PM 51.2167 -113.9500 21° North 510 587 35,000  Level Edmonton Center
Thu 09:54:45 PM 51.3667 -113.9000 12° North 510 587 35,000  Level Edmonton Center
Thu 09:55:45 PM 51.4833 -113.8500 15° North 510 587 35,000  Level Edmonton Center
Thu 09:56:45 PM 51.6333 -113.7667 19° North 500 575 35,000  Level Edmonton Center
Thu 09:57:45 PM 51.7500 -113.7167 15° North 500 575 35,000  Level Edmonton Center
Thu 09:58:45 PM 51.9000 -113.6500 15° North 500 575 35,000  Level Edmonton Center
Thu 09:59:45 PM 52.0333 -113.5833 17° North 490 564 35,000  Level Edmonton Center
Thu 10:00:45 PM 52.1667 -113.5167 17° North 490 564 35,000  Level Edmonton Center
Thu 10:01:45 PM 52.3000 -113.4667 13° North 490 564 35,000  Level Edmonton Center
Thu 10:02:45 PM 52.4333 -113.4000 17° North 490 564 35,000  Level Edmonton Center
Thu 10:03:45 PM 52.5667 -113.3167 21° North 490 564 35,000  Level Edmonton Center
Thu 10:04:45 PM 52.6833 -113.2667 15° North 490 564 35,000  Level Edmonton Center
Thu 10:05:45 PM 52.8333 -113.2000 15° North 500 575 35,000  Level Edmonton Center
Thu 10:06:45 PM 52.9500 -113.1500 14° North 500 575 35,000 -50 Level Edmonton Center
Thu 10:07:45 PM 53.1000 -113.0667 18° North 500 575 34,900  Descending Edmonton Center
Thu 10:08:45 PM 53.2167 -113.0000 19° North 490 564 35,000 50 Climbing Edmonton Center
Thu 10:09:45 PM 53.3667 -112.9333 15° North 490 564 35,000  Level Edmonton Center
Thu 10:10:45 PM 53.4833 -112.8833 14° North 490 564 35,000  Level Edmonton Center
Thu 10:11:45 PM 53.6333 -112.8000 18° North 490 564 35,000  Level Edmonton Center
Thu 10:12:45 PM 53.7500 -112.7333 19° North 490 564 35,000  Level Edmonton Center
Thu 10:13:45 PM 53.8833 -112.6667 16° North 490 564 35,000 -50 Level Edmonton Center
Thu 10:14:45 PM 54.0167 -112.6000 16° North 490 564 34,900  Descending Edmonton Center
Thu 10:15:45 PM 54.1500 -112.5167 20° North 490 564 35,000 50 Climbing Edmonton Center
Thu 10:16:45 PM 54.2833 -112.4500 16° North 480 552 35,000  Level Edmonton Center
Thu 10:17:45 PM 54.4000 -112.3833 18° North 480 552 35,000  Level Edmonton Center
Thu 10:18:45 PM 54.5333 -112.3333 12° North 480 552 35,000  Level Edmonton Center
Thu 10:19:45 PM 54.6667 -112.2667 16° North 480 552 35,000  Level Edmonton Center
Thu 10:20:45 PM 54.8000 -112.1667 23° Northeast 480 552 35,000  Level Edmonton Center
Thu 10:21:45 PM 54.9333 -112.1000 16° North 480 552 35,000  Level Edmonton Center
Thu 10:22:45 PM 55.0500 -112.0333 18° North 480 552 35,000  Level Edmonton Center
Thu 10:23:45 PM 55.1667 -111.9667 18° North 470 541 35,000  Level Edmonton Center
Thu 10:24:45 PM 55.3000 -111.9000 16° North 470 541 35,000  Level Edmonton Center
Thu 10:25:45 PM 55.4333 -111.8333 16° North 470 541 35,000  Level Edmonton Center
Thu 10:26:45 PM 55.5667 -111.7667 16° North 470 541 35,000  Level Edmonton Center
Thu 10:27:45 PM 55.6833 -111.6667 26° Northeast 470 541 35,000  Level Edmonton Center
Thu 10:28:45 PM 55.8000 -111.6000 18° North 470 541 35,000 -50 Level Edmonton Center
Thu 10:29:45 PM 55.9500 -111.5333 14° North 470 541 34,900  Descending Edmonton Center
Thu 10:30:45 PM 56.0667 -111.4667 18° North 470 541 35,000 50 Climbing Edmonton Center
Thu 10:31:45 PM 56.2000 -111.4000 16° North 470 541 35,000  Level Edmonton Center
Thu 10:32:45 PM 56.3167 -111.3333 18° North 470 541 35,000  Level Edmonton Center
Thu 10:33:45 PM 56.4500 -111.2500 19° North 470 541 35,000  Level Edmonton Center
Thu 10:34:45 PM 56.5833 -111.1833 15° North 470 541 35,000  Level Edmonton Center
Thu 10:35:45 PM 56.7000 -111.0833 25° Northeast 470 541 35,000  Level Edmonton Center
Thu 10:36:45 PM 56.8167 -110.9833 25° Northeast 470 541 35,000  Level Edmonton Center
Thu 10:37:45 PM 56.9500 -110.8833 22° Northeast 470 541 35,000  Level Edmonton Center
Thu 10:38:45 PM 57.0500 -110.7667 32° Northeast 470 541 35,000  Level Edmonton Center
Thu 10:39:45 PM 57.1833 -110.7000 15° North 470 541 35,000  Level Edmonton Center
Thu 10:40:45 PM 57.3000 -110.5833 28° Northeast 460 529 35,000  Level Edmonton Center
Thu 10:41:45 PM 57.4167 -110.4833 25° Northeast 460 529 35,000  Level Edmonton Center
Thu 10:42:45 PM 57.5333 -110.3667 28° Northeast 460 529 35,000  Level Edmonton Center
Thu 10:43:45 PM 57.6667 -110.2667 22° Northeast 460 529 35,000  Level Edmonton Center
Thu 10:44:45 PM 57.7833 -110.1500 28° Northeast 470 541 35,000  Level Edmonton Center
Thu 10:45:45 PM 57.8833 -110.0667 24° Northeast 470 541 35,000  Level Edmonton Center
Thu 10:46:45 PM 58.0167 -109.9667 22° Northeast 470 541 35,000  Level Edmonton Center
Thu 10:47:45 PM 58.1333 -109.8500 28° Northeast 460 529 35,000  Level Edmonton Center
Thu 10:48:45 PM 58.2333 -109.7333 32° Northeast 460 529 35,000  Level Edmonton Center
Thu 10:49:45 PM 58.3667 -109.6500 18° North 460 529 35,000  Level Edmonton Center
Thu 10:50:45 PM 58.4833 -109.5333 28° Northeast 460 529 35,000  Level Edmonton Center
Thu 10:51:45 PM 58.6167 -109.4167 24° Northeast 470 541 35,000  Level Edmonton Center
Thu 10:52:45 PM 58.7333 -109.3167 24° Northeast 470 541 35,000  Level Edmonton Center
Thu 10:53:45 PM 58.8333 -109.1833 35° Northeast 470 541 35,000  Level Edmonton Center
Thu 10:54:45 PM 58.9667 -109.0667 24° Northeast 470 541 35,000  Level Edmonton Center
Thu 10:55:45 PM 59.0833 -108.9500 27° Northeast 470 541 35,000  Level Edmonton Center
Thu 10:56:45 PM 59.2000 -108.8333 27° Northeast 470 541 35,000  Level Edmonton Center
Thu 10:57:45 PM 59.3333 -108.7500 18° North 470 541 35,000  Level Edmonton Center
Thu 10:58:45 PM 59.4500 -108.6333 27° Northeast 470 541 35,000  Level Edmonton Center
Thu 10:59:45 PM 59.5500 -108.5167 31° Northeast 470 541 35,000  Level Edmonton Center
Thu 11:00:45 PM 59.6833 -108.3833 27° Northeast 480 552 35,000  Level Edmonton Center
Thu 11:01:45 PM 59.8000 -108.2667 27° Northeast 470 541 35,000  Level Edmonton Center
Thu 11:02:45 PM 59.9167 -108.1500 27° Northeast 480 552 35,000  Level Edmonton Center
Thu 11:03:45 PM 60.0500 -108.0167 27° Northeast 470 541 35,000  Level Edmonton Center
Thu 11:04:45 PM 60.1500 -107.8833 34° Northeast 480 552 35,000  Level Edmonton Center
Thu 11:05:45 PM 60.2667 -107.7667 26° Northeast 480 552 35,000  Level Edmonton Center
Thu 11:06:45 PM 60.3833 -107.6333 29° Northeast 480 552 35,000  Level Edmonton Center
Thu 11:07:45 PM 60.5167 -107.5167 23° Northeast 480 552 35,000  Level Edmonton Center
Thu 11:08:45 PM 60.6333 -107.3833 29° Northeast 480 552 35,000  Level Edmonton Center
Thu 11:09:45 PM 60.7500 -107.2500 29° Northeast 480 552 35,000  Level Edmonton Center
Thu 11:10:45 PM 60.8667 -107.0833 35° Northeast 480 552 35,000  Level Edmonton Center
Thu 11:11:45 PM 61.0000 -106.9500 26° Northeast 480 552 35,000  Level Edmonton Center
Thu 11:12:45 PM 61.1167 -106.8167 29° Northeast 480 552 35,000  Level Edmonton Center
Thu 11:13:45 PM 61.2333 -106.6833 29° Northeast 480 552 35,000  Level Edmonton Center
Thu 11:14:45 PM 61.3500 -106.5500 29° Northeast 480 552 35,000  Level Edmonton Center
Thu 11:15:45 PM 61.4833 -106.4167 26° Northeast 490 564 35,000  Level Edmonton Center
Thu 11:16:45 PM 61.6000 -106.2833 29° Northeast 490 564 35,000  Level Edmonton Center
Thu 11:17:45 PM 61.7167 -106.1333 31° Northeast 490 564 35,000  Level Edmonton Center
Thu 11:18:45 PM 61.8333 -106.0000 28° Northeast 490 564 35,000  Level Edmonton Center
Thu 11:19:45 PM 61.9500 -105.8500 31° Northeast 490 564 35,000  Level Edmonton Center
Thu 11:20:45 PM 62.0833 -105.7167 25° Northeast 480 552 35,000  Level Edmonton Center
Thu 11:21:45 PM 62.2000 -105.5667 31° Northeast 490 564 35,000  Level Edmonton Center
Thu 11:22:45 PM 62.3167 -105.4000 34° Northeast 480 552 35,000  Level Edmonton Center
Thu 11:23:45 PM 62.4333 -105.2500 31° Northeast 480 552 35,000  Level Edmonton Center
Thu 11:24:45 PM 62.5500 -105.1000 31° Northeast 480 552 35,000  Level Edmonton Center
Thu 11:25:45 PM 62.6667 -104.9500 31° Northeast 480 552 35,000  Level Edmonton Center
Thu 11:26:45 PM 62.7833 -104.8000 30° Northeast 480 552 35,000 Level Edmonton Center
Thu 11:28:00 PM 62.9414 -104.6584 22° Northeast  Level FlightAware Approximate
Thu 11:35:00 PM 63.8242 -103.8360 22° Northeast  Level FlightAware Approximate
Thu 11:36:00 PM 63.9499 -103.7143 23° Northeast  Level FlightAware Approximate
Thu 11:37:00 PM 64.0755 -103.5916 23° Northeast  Level FlightAware Approximate
Thu 11:38:00 PM 64.2010 -103.4677 23° Northeast  Level FlightAware Approximate
Thu 11:39:00 PM 64.3264 -103.3426 23° Northeast  Level FlightAware Approximate
Thu 11:40:00 PM 64.4517 -103.2165 23° Northeast  Level FlightAware Approximate
Thu 11:41:00 PM 64.5769 -103.0891 24° Northeast  Level FlightAware Approximate
Thu 11:42:00 PM 64.7020 -102.9606 24° Northeast  Level FlightAware Approximate
Thu 11:43:00 PM 64.8269 -102.8309 24° Northeast  Level FlightAware Approximate
Thu 11:44:00 PM 64.9518 -102.7000 24° Northeast  Level FlightAware Approximate
Thu 11:45:00 PM 65.0765 -102.5679 24° Northeast  Level FlightAware Approximate
Thu 11:46:00 PM 65.2011 -102.4345 24° Northeast  Level FlightAware Approximate
Thu 11:47:00 PM 65.3256 -102.2999 24° Northeast  Level FlightAware Approximate
Thu 11:48:00 PM 65.4500 -102.1640 24° Northeast  Level FlightAware Approximate
Thu 11:49:00 PM 65.5742 -102.0268 25° Northeast  Level FlightAware Approximate
Thu 11:50:00 PM 65.6948 -101.8709 28° Northeast  Level FlightAware Approximate
Thu 11:51:00 PM 65.8149 -101.7122 28° Northeast  Level FlightAware Approximate
Thu 11:52:00 PM 65.9348 -101.5520 29° Northeast  Level FlightAware Approximate
Thu 11:53:00 PM 66.0546 -101.3903 29° Northeast  Level FlightAware Approximate
Thu 11:54:00 PM 66.1742 -101.2271 29° Northeast  Level FlightAware Approximate
Thu 11:55:00 PM 66.2936 -101.0623 29° Northeast  Level FlightAware Approximate
Thu 11:56:00 PM 66.4129 -100.8960 29° Northeast  Level FlightAware Approximate
Thu 11:57:00 PM 66.5320 -100.7281 29° Northeast  Level FlightAware Approximate
Thu 11:58:00 PM 66.6508 -100.5585 29° Northeast  Level FlightAware Approximate
Thu 11:59:00 PM 66.7696 -100.3874 30° Northeast  Level FlightAware Approximate
Fri 12:00:00 AM 66.8881 -100.2145 30° Northeast  Level FlightAware Approximate
Fri 12:01:00 AM 67.0064 -100.0400 30° Northeast  Level FlightAware Approximate
Fri 12:02:00 AM 67.1243 -99.8625 30° Northeast  Level FlightAware Approximate
Fri 12:03:00 AM 67.2418 -99.6828 31° Northeast  Level FlightAware Approximate
Fri 12:04:00 AM 67.3592 -99.5014 31° Northeast  Level FlightAware Approximate
Fri 12:05:00 AM 67.4763 -99.3182 31° Northeast  Level FlightAware Approximate
Fri 12:06:00 AM 67.5933 -99.1332 31° Northeast  Level FlightAware Approximate
Fri 12:07:00 AM 67.7100 -98.9463 31° Northeast  Level FlightAware Approximate
Fri 12:08:00 AM 67.8265 -98.7576 31° Northeast  Level FlightAware Approximate
Fri 12:09:00 AM 67.9428 -98.5670 32° Northeast  Level FlightAware Approximate
Fri 12:10:00 AM 68.0589 -98.3745 32° Northeast  Level FlightAware Approximate
Fri 12:11:00 AM 68.1747 -98.1800 32° Northeast  Level FlightAware Approximate
Fri 12:12:00 AM 68.2903 -97.9836 32° Northeast  Level FlightAware Approximate
Fri 12:13:00 AM 68.4057 -97.7851 32° Northeast  Level FlightAware Approximate
Fri 12:14:00 AM 68.5208 -97.5847 32° Northeast  Level FlightAware Approximate
Fri 12:15:00 AM 68.6357 -97.3821 33° Northeast  Level FlightAware Approximate
Fri 12:16:00 AM 68.7504 -97.1775 33° Northeast  Level FlightAware Approximate
Fri 12:17:00 AM 68.8648 -96.9708 33° Northeast  Level FlightAware Approximate
Fri 12:18:00 AM 68.9789 -96.7619 33° Northeast  Level FlightAware Approximate
Fri 12:19:00 AM 69.0928 -96.5509 33° Northeast  Level FlightAware Approximate
Fri 12:20:00 AM 69.2064 -96.3376 34° Northeast  Level FlightAware Approximate
Fri 12:21:00 AM 69.3198 -96.1222 34° Northeast  Level FlightAware Approximate
Fri 12:22:00 AM 69.4329 -95.9044 34° Northeast  Level FlightAware Approximate
Fri 12:23:00 AM 69.5457 -95.6844 34° Northeast  Level FlightAware Approximate
Fri 12:24:00 AM 69.6582 -95.4620 34° Northeast  Level FlightAware Approximate
Fri 12:25:00 AM 69.7705 -95.2372 35° Northeast  Level FlightAware Approximate
Fri 12:26:00 AM 69.8825 -95.0101 35° Northeast  Level FlightAware Approximate
Fri 12:27:00 AM 69.9941 -94.7805 35° Northeast  Level FlightAware Approximate
Fri 12:28:00 AM 70.1055 -94.5484 35° Northeast  Level FlightAware Approximate
Fri 12:29:00 AM 70.2166 -94.3139 36° Northeast  Level FlightAware Approximate
Fri 12:30:00 AM 70.3273 -94.0768 36° Northeast  Level FlightAware Approximate
Fri 12:31:00 AM 70.4378 -93.8371 36° Northeast  Level FlightAware Approximate
Fri 12:32:00 AM 70.5479 -93.5948 36° Northeast  Level FlightAware Approximate
Fri 12:33:00 AM 70.6577 -93.3499 36° Northeast  Level FlightAware Approximate
Fri 12:34:00 AM 70.7672 -93.1023 37° Northeast  Level FlightAware Approximate
Fri 12:35:00 AM 70.8763 -92.8520 37° Northeast  Level FlightAware Approximate
Fri 12:36:00 AM 70.9851 -92.5989 37° Northeast  Level FlightAware Approximate
Fri 12:37:00 AM 71.0935 -92.3430 37° Northeast  Level FlightAware Approximate
Fri 12:38:00 AM 71.2016 -92.0842 38° Northeast  Level FlightAware Approximate
Fri 12:39:00 AM 71.3093 -91.8226 38° Northeast  Level FlightAware Approximate
Fri 12:40:00 AM 71.4167 -91.5581 38° Northeast  Level FlightAware Approximate
Fri 12:41:00 AM 71.5237 -91.2906 38° Northeast  Level FlightAware Approximate
Fri 12:42:00 AM 71.6303 -91.0201 39° Northeast  Level FlightAware Approximate
Fri 12:43:00 AM 71.7365 -90.7466 39° Northeast  Level FlightAware Approximate
Fri 12:44:00 AM 71.8423 -90.4699 39° Northeast  Level FlightAware Approximate
Fri 12:45:00 AM 71.9478 -90.1902 39° Northeast  Level FlightAware Approximate
Fri 12:46:00 AM 72.0525 -89.9063 40° Northeast  Level FlightAware Approximate
Fri 12:47:00 AM 72.1565 -89.6181 40° Northeast  Level FlightAware Approximate
Fri 12:48:00 AM 72.2602 -89.3266 41° Northeast  Level FlightAware Approximate
Fri 12:49:00 AM 72.3634 -89.0318 41° Northeast  Level FlightAware Approximate
Fri 12:50:00 AM 72.4661 -88.7337 41° Northeast  Level FlightAware Approximate
Fri 12:51:00 AM 72.5689 -88.4339 41° Northeast  Level FlightAware Approximate
Fri 12:52:00 AM 72.6713 -88.1310 41° Northeast  Level FlightAware Approximate
Fri 12:53:00 AM 72.7733 -87.8246 42° Northeast  Level FlightAware Approximate
Fri 12:54:00 AM 72.8747 -87.5147 42° Northeast  Level FlightAware Approximate
Fri 12:55:00 AM 72.9758 -87.2013 42° Northeast  Level FlightAware Approximate
Fri 12:56:00 AM 73.0763 -86.8842 42° Northeast  Level FlightAware Approximate
Fri 12:57:00 AM 73.1763 -86.5634 43° Northeast  Level FlightAware Approximate
Fri 12:58:00 AM 73.2758 -86.2389 43° Northeast  Level FlightAware Approximate
Fri 12:59:00 AM 73.3748 -85.9107 43° Northeast  Level FlightAware Approximate
Fri 01:00:00 AM 73.4733 -85.5787 44° Northeast  Level FlightAware Approximate
Fri 01:01:00 AM 73.5712 -85.2427 44° Northeast  Level FlightAware Approximate
Fri 01:02:00 AM 73.6686 -84.9029 44° Northeast  Level FlightAware Approximate
Fri 01:03:00 AM 73.7655 -84.5592 45° Northeast  Level FlightAware Approximate
Fri 01:04:00 AM 73.8618 -84.2114 45° Northeast  Level FlightAware Approximate
Fri 01:05:00 AM 73.9575 -83.8596 45° Northeast  Level FlightAware Approximate
Fri 01:06:00 AM 74.0527 -83.5036 46° Northeast  Level FlightAware Approximate
Fri 01:07:00 AM 74.1472 -83.1436 46° Northeast  Level FlightAware Approximate
Fri 01:08:00 AM 74.2412 -82.7793 46° Northeast  Level FlightAware Approximate
Fri 01:09:00 AM 74.3345 -82.4108 47° Northeast  Level FlightAware Approximate
Fri 01:10:00 AM 74.4273 -82.0380 47° Northeast  Level FlightAware Approximate
Fri 01:11:00 AM 74.5194 -81.6609 47° Northeast  Level FlightAware Approximate
Fri 01:12:00 AM 74.6108 -81.2793 48° Northeast  Level FlightAware Approximate
Fri 01:13:00 AM 74.7016 -80.8933 48° Northeast  Level FlightAware Approximate
Fri 01:14:00 AM 74.7917 -80.5029 49° Northeast  Level FlightAware Approximate
Fri 01:15:00 AM 74.8811 -80.1079 49° Northeast  Level FlightAware Approximate
Fri 01:16:00 AM 74.9699 -79.7084 49° Northeast  Level FlightAware Approximate
Fri 01:17:00 AM 75.0579 -79.3042 50° Northeast  Level FlightAware Approximate
Fri 01:18:00 AM 75.1452 -78.8954 50° Northeast  Level FlightAware Approximate
Fri 01:19:00 AM 75.2318 -78.4819 50° Northeast  Level FlightAware Approximate
Fri 01:20:00 AM 75.3176 -78.0636 51° Northeast  Level FlightAware Approximate
Fri 01:21:00 AM 75.4027 -77.6405 51° Northeast  Level FlightAware Approximate
Fri 01:22:00 AM 75.4870 -77.2126 52° Northeast  Level FlightAware Approximate
Fri 01:23:00 AM 75.5706 -76.7799 52° Northeast  Level FlightAware Approximate
Fri 01:24:00 AM 75.6533 -76.3422 53° Northeast  Level FlightAware Approximate
Fri 01:25:00 AM 75.7352 -75.8996 53° Northeast  Level FlightAware Approximate
Fri 01:26:00 AM 75.8163 -75.4520 53° Northeast  Level FlightAware Approximate
Fri 01:27:00 AM 75.9021 -75.0166 51° Northeast  Level FlightAware Approximate
Fri 01:28:00 AM 75.9872 -74.5762 51° Northeast  Level FlightAware Approximate
Fri 01:29:00 AM 76.0714 -74.1305 52° Northeast  Level FlightAware Approximate
Fri 01:30:00 AM 76.1548 -73.6795 52° Northeast  Level FlightAware Approximate
Fri 01:31:00 AM 76.2374 -73.2232 53° Northeast  Level FlightAware Approximate
Fri 01:32:00 AM 76.3191 -72.7615 53° Northeast  Level FlightAware Approximate
Fri 01:33:00 AM 76.3999 -72.2944 53° Northeast  Level FlightAware Approximate
Fri 01:34:00 AM 76.4799 -71.8218 54° Northeast  Level FlightAware Approximate
Fri 01:35:00 AM 76.5590 -71.3438 54° Northeast  Level FlightAware Approximate
Fri 01:36:00 AM 76.6372 -70.8602 55° Northeast  Level FlightAware Approximate
Fri 01:37:00 AM 76.7144 -70.3711 55° Northeast  Level FlightAware Approximate
Fri 01:38:00 AM 76.7907 -69.8764 56° Northeast  Level FlightAware Approximate
Fri 01:39:00 AM 76.8661 -69.3761 56° Northeast  Level FlightAware Approximate
Fri 01:40:00 AM 76.9404 -68.8702 57° Northeast  Level FlightAware Approximate
Fri 01:41:00 AM 77.0138 -68.3586 57° Northeast  Level FlightAware Approximate
Fri 01:42:00 AM 77.0861 -67.8413 58° Northeast  Level FlightAware Approximate
Fri 01:43:00 AM 77.1575 -67.3184 58° Northeast  Level FlightAware Approximate
Fri 01:44:00 AM 77.2282 -66.7908 59° Northeast  Level FlightAware Approximate
Fri 01:45:00 AM 77.2984 -66.2593 59° Northeast  Level FlightAware Approximate
Fri 01:46:00 AM 77.3676 -65.7219 59° Northeast  Level FlightAware Approximate
Fri 01:47:00 AM 77.4358 -65.1788 60° Northeast  Level FlightAware Approximate
Fri 01:48:00 AM 77.5028 -64.6300 60° Northeast  Level FlightAware Approximate
Fri 01:49:00 AM 77.5686 -64.0753 61° Northeast  Level FlightAware Approximate
Fri 01:50:00 AM 77.6334 -63.5149 61° Northeast  Level FlightAware Approximate
Fri 01:51:00 AM 77.6970 -62.9487 62° Northeast  Level FlightAware Approximate
Fri 01:52:00 AM 77.7594 -62.3768 63° Northeast  Level FlightAware Approximate
Fri 01:53:00 AM 77.8206 -61.7991 63° Northeast  Level FlightAware Approximate
Fri 01:54:00 AM 77.8806 -61.2158 64° Northeast  Level FlightAware Approximate
Fri 01:55:00 AM 77.9394 -60.6268 64° Northeast  Level FlightAware Approximate
Fri 01:56:00 AM 77.9969 -60.0322 65° Northeast  Level FlightAware Approximate
Fri 01:57:00 AM 78.0502 -59.4257 67° East  Level FlightAware Approximate
Fri 01:58:00 AM 78.1019 -58.8136 67° East  Level FlightAware Approximate
Fri 01:59:00 AM 78.1523 -58.1963 68° East  Level FlightAware Approximate
Fri 02:00:00 AM 78.2014 -57.5738 69° East  Level FlightAware Approximate
Fri 02:01:00 AM 78.2491 -56.9463 69° East  Level FlightAware Approximate
Fri 02:02:00 AM 78.2954 -56.3138 70° East  Level FlightAware Approximate
Fri 02:03:00 AM 78.3403 -55.6764 70° East  Level FlightAware Approximate
Fri 02:04:00 AM 78.3838 -55.0343 71° East  Level FlightAware Approximate
Fri 02:05:00 AM 78.4259 -54.3875 72° East  Level FlightAware Approximate
Fri 02:06:00 AM 78.4665 -53.7361 72° East  Level FlightAware Approximate
Fri 02:07:00 AM 78.5078 -53.0835 72° East  Level FlightAware Approximate
Fri 02:08:00 AM 78.5477 -52.4263 73° East  Level FlightAware Approximate
Fri 02:09:00 AM 78.5861 -51.7648 73° East  Level FlightAware Approximate
Fri 02:10:00 AM 78.6230 -51.0989 74° East  Level FlightAware Approximate
Fri 02:11:00 AM 78.6584 -50.4288 75° East  Level FlightAware Approximate
Fri 02:12:00 AM 78.6923 -49.7546 75° East  Level FlightAware Approximate
Fri 02:13:00 AM 78.7246 -49.0765 76° East  Level FlightAware Approximate
Fri 02:14:00 AM 78.7554 -48.3947 77° East  Level FlightAware Approximate
Fri 02:15:00 AM 78.7847 -47.7093 77° East  Level FlightAware Approximate
Fri 02:16:00 AM 78.8124 -47.0205 78° East  Level FlightAware Approximate
Fri 02:17:00 AM 78.8384 -46.3283 79° East  Level FlightAware Approximate
Fri 02:18:00 AM 78.8629 -45.6331 79° East  Level FlightAware Approximate
Fri 02:19:00 AM 78.8858 -44.9349 80° East  Level FlightAware Approximate
Fri 02:20:00 AM 78.9071 -44.2340 81° East  Level FlightAware Approximate
Fri 02:21:00 AM 78.9267 -43.5305 81° East  Level FlightAware Approximate
Fri 02:22:00 AM 78.9447 -42.8247 82° East  Level FlightAware Approximate
Fri 02:23:00 AM 78.9611 -42.1167 83° East  Level FlightAware Approximate
Fri 02:24:00 AM 78.9758 -41.4067 83° East  Level FlightAware Approximate
Fri 02:25:00 AM 78.9889 -40.6950 84° East  Level FlightAware Approximate
Fri 02:26:00 AM 79.0006 -39.9819 80° East  Level FlightAware Approximate
Fri 02:27:00 AM 79.0230 -39.2748 80° East  Level FlightAware Approximate
Fri 02:28:00 AM 79.0439 -38.5648 81° East  Level FlightAware Approximate
Fri 02:29:00 AM 79.0630 -37.8523 82° East  Level FlightAware Approximate
Fri 02:30:00 AM 79.0805 -37.1375 82° East  Level FlightAware Approximate
Fri 02:31:00 AM 79.0964 -36.4205 83° East  Level FlightAware Approximate
Fri 02:32:00 AM 79.1105 -35.7015 84° East  Level FlightAware Approximate
Fri 02:33:00 AM 79.1230 -34.9808 84° East  Level FlightAware Approximate
Fri 02:34:00 AM 79.1338 -34.2585 85° East  Level FlightAware Approximate
Fri 02:35:00 AM 79.1430 -33.5350 86° East  Level FlightAware Approximate
Fri 02:36:00 AM 79.1504 -32.8104 87° East  Level FlightAware Approximate
Fri 02:37:00 AM 79.1561 -32.0849 87° East  Level FlightAware Approximate
Fri 02:38:00 AM 79.1601 -31.3587 88° East  Level FlightAware Approximate
Fri 02:39:00 AM 79.1625 -30.6321 89° East  Level FlightAware Approximate
Fri 02:40:00 AM 79.1631 -29.9054 89° East  Level FlightAware Approximate
Fri 02:41:00 AM 79.1620 -29.1786 90° East  Level FlightAware Approximate
Fri 02:42:00 AM 79.1593 -28.4521 91° East  Level FlightAware Approximate
Fri 02:43:00 AM 79.1548 -27.7261 92° East  Level FlightAware Approximate
Fri 02:44:00 AM 79.1486 -27.0008 92° East  Level FlightAware Approximate
Fri 02:45:00 AM 79.1407 -26.2765 93° East  Level FlightAware Approximate
Fri 02:46:00 AM 79.1312 -25.5532 94° East  Level FlightAware Approximate
Fri 02:47:00 AM 79.1199 -24.8314 94° East  Level FlightAware Approximate
Fri 02:48:00 AM 79.1070 -24.1111 95° East  Level FlightAware Approximate
Fri 02:49:00 AM 79.0924 -23.3926 96° East  Level FlightAware Approximate
Fri 02:50:00 AM 79.0761 -22.6761 96° East  Level FlightAware Approximate
Fri 02:51:00 AM 79.0582 -21.9619 97° East  Level FlightAware Approximate
Fri 02:52:00 AM 79.0386 -21.2500 98° East  Level FlightAware Approximate
Fri 02:53:00 AM 79.0173 -20.5408 99° East  Level FlightAware Approximate
Fri 02:54:00 AM 78.9976 -19.8323 94° East  Level FlightAware Approximate
Fri 02:55:00 AM 78.9866 -19.1191 94° East  Level FlightAware Approximate
Fri 02:56:00 AM 78.9738 -18.4073 95° East  Level FlightAware Approximate
Fri 02:57:00 AM 78.9594 -17.6973 96° East  Level FlightAware Approximate
Fri 02:58:00 AM 78.9434 -16.9892 96° East  Level FlightAware Approximate
Fri 02:59:00 AM 78.9257 -16.2832 97° East  Level FlightAware Approximate
Fri 03:00:00 AM 78.9063 -15.5796 98° East  Level FlightAware Approximate
Fri 03:01:00 AM 78.8854 -14.8784 98° East  Level FlightAware Approximate
Fri 03:02:00 AM 78.8628 -14.1800 99° East  Level FlightAware Approximate
Fri 03:03:00 AM 78.8386 -13.4845 100° East  Level FlightAware Approximate
Fri 03:04:00 AM 78.8129 -12.7920 101° East  Level FlightAware Approximate
Fri 03:05:00 AM 78.7855 -12.1028 101° East  Level FlightAware Approximate
Fri 03:06:00 AM 78.7566 -11.4170 102° East  Level FlightAware Approximate
Fri 03:07:00 AM 78.7261 -10.7347 103° East  Level FlightAware Approximate
Fri 03:08:00 AM 78.6941 -10.0562 103° East  Level FlightAware Approximate
Fri 03:09:00 AM 78.6605 -9.3815 104° East  Level FlightAware Approximate
Fri 03:10:00 AM 78.6254 -8.7109 105° East  Level FlightAware Approximate
Fri 03:11:00 AM 78.5888 -8.0444 105° East  Level FlightAware Approximate
Fri 03:12:00 AM 78.5507 -7.3823 106° East  Level FlightAware Approximate
Fri 03:13:00 AM 78.5111 -6.7245 107° East  Level FlightAware Approximate
Fri 03:14:00 AM 78.4700 -6.0713 107° East  Level FlightAware Approximate
Fri 03:15:00 AM 78.4275 -5.4227 108° East  Level FlightAware Approximate
Fri 03:16:00 AM 78.3836 -4.7789 108° East  Level FlightAware Approximate
Fri 03:17:00 AM 78.3382 -4.1399 109° East  Level FlightAware Approximate
Fri 03:18:00 AM 78.2915 -3.5060 110° East  Level FlightAware Approximate
Fri 03:19:00 AM 78.2434 -2.8770 110° East  Level FlightAware Approximate
Fri 03:20:00 AM 78.1939 -2.2532 111° Southeast  Level FlightAware Approximate
Fri 03:21:00 AM 78.1431 -1.6346 112° Southeast  Level FlightAware Approximate
Fri 03:22:00 AM 78.0909 -1.0213 112° Southeast  Level FlightAware Approximate
Fri 03:23:00 AM 78.0374 -0.4133 113° Southeast  Level FlightAware Approximate
Fri 03:24:00 AM 77.9737 0.1639 128° Southeast  Level FlightAware Approximate
Fri 03:25:00 AM 77.8897 0.6794 128° Southeast  Level FlightAware Approximate
Fri 03:26:00 AM 77.8048 1.1878 128° Southeast  Level FlightAware Approximate
Fri 03:27:00 AM 77.7189 1.6893 129° Southeast  Level FlightAware Approximate
Fri 03:28:00 AM 77.6321 2.1839 129° Southeast  Level FlightAware Approximate
Fri 03:29:00 AM 77.5445 2.6716 130° Southeast  Level FlightAware Approximate
Fri 03:30:00 AM 77.4560 3.1527 130° Southeast  Level FlightAware Approximate
Fri 03:31:00 AM 77.3666 3.6270 131° Southeast  Level FlightAware Approximate
Fri 03:32:00 AM 77.2764 4.0948 131° Southeast  Level FlightAware Approximate
Fri 03:33:00 AM 77.1854 4.5560 132° Southeast  Level FlightAware Approximate
Fri 03:34:00 AM 77.0937 5.0109 132° Southeast  Level FlightAware Approximate
Fri 03:35:00 AM 77.0011 5.4594 132° Southeast  Level FlightAware Approximate
Fri 03:36:00 AM 76.9078 5.9016 133° Southeast  Level FlightAware Approximate
Fri 03:37:00 AM 76.8137 6.3377 133° Southeast  Level FlightAware Approximate
Fri 03:38:00 AM 76.7189 6.7676 134° Southeast  Level FlightAware Approximate
Fri 03:39:00 AM 76.6234 7.1916 134° Southeast  Level FlightAware Approximate
Fri 03:40:00 AM 76.5273 7.6096 135° Southeast  Level FlightAware Approximate
Fri 03:41:00 AM 76.4304 8.0218 135° Southeast  Level FlightAware Approximate
Fri 03:42:00 AM 76.3328 8.4283 135° Southeast  Level FlightAware Approximate
Fri 03:43:00 AM 76.2346 8.8291 136° Southeast  Level FlightAware Approximate
Fri 03:44:00 AM 76.1358 9.2243 136° Southeast  Level FlightAware Approximate
Fri 03:45:00 AM 76.0364 9.6139 137° Southeast  Level FlightAware Approximate
Fri 03:46:00 AM 75.9363 9.9982 137° Southeast  Level FlightAware Approximate
Fri 03:47:00 AM 75.8356 10.3771 137° Southeast  Level FlightAware Approximate
Fri 03:48:00 AM 75.7344 10.7508 138° Southeast  Level FlightAware Approximate
Fri 03:49:00 AM 75.6325 11.1193 138° Southeast  Level FlightAware Approximate
Fri 03:50:00 AM 75.5302 11.4827 138° Southeast  Level FlightAware Approximate
Fri 03:51:00 AM 75.4272 11.8411 139° Southeast  Level FlightAware Approximate
Fri 03:52:00 AM 75.3237 12.1946 139° Southeast  Level FlightAware Approximate
Fri 03:53:00 AM 75.2197 12.5432 139° Southeast  Level FlightAware Approximate
Fri 03:54:00 AM 75.1152 12.8871 140° Southeast  Level FlightAware Approximate
Fri 03:55:00 AM 75.0102 13.2262 140° Southeast  Level FlightAware Approximate
Fri 03:56:00 AM 74.9046 13.5607 140° Southeast  Level FlightAware Approximate
Fri 03:57:00 AM 74.7986 13.8907 141° Southeast  Level FlightAware Approximate
Fri 03:58:00 AM 74.6922 14.2162 141° Southeast  Level FlightAware Approximate
Fri 03:59:00 AM 74.5852 14.5373 141° Southeast  Level FlightAware Approximate
Fri 04:00:00 AM 74.4778 14.8540 142° Southeast  Level FlightAware Approximate
Fri 04:01:00 AM 74.3700 15.1665 142° Southeast  Level FlightAware Approximate
Fri 04:02:00 AM 74.2617 15.4749 142° Southeast  Level FlightAware Approximate
Fri 04:03:00 AM 74.1530 15.7791 143° Southeast  Level FlightAware Approximate
Fri 04:04:00 AM 74.0438 16.0793 143° Southeast  Level FlightAware Approximate
Fri 04:05:00 AM 73.9343 16.3754 143° Southeast  Level FlightAware Approximate
Fri 04:06:00 AM 73.8244 16.6679 144° Southeast  Level FlightAware Approximate
Fri 04:07:00 AM 73.7143 16.9572 144° Southeast  Level FlightAware Approximate
Fri 04:08:00 AM 73.6037 17.2427 144° Southeast  Level FlightAware Approximate
Fri 04:09:00 AM 73.4928 17.5245 144° Southeast  Level FlightAware Approximate
Fri 04:10:00 AM 73.3815 17.8027 144° Southeast  Level FlightAware Approximate
Fri 04:11:00 AM 73.2699 18.0772 145° Southeast  Level FlightAware Approximate
Fri 04:12:00 AM 73.1579 18.3482 145° Southeast  Level FlightAware Approximate
Fri 04:13:00 AM 73.0455 18.6157 145° Southeast  Level FlightAware Approximate
Fri 04:14:00 AM 72.9328 18.8798 145° Southeast  Level FlightAware Approximate
Fri 04:15:00 AM 72.8197 19.1406 146° Southeast  Level FlightAware Approximate
Fri 04:16:00 AM 72.7064 19.3980 146° Southeast  Level FlightAware Approximate
Fri 04:17:00 AM 72.5927 19.6521 146° Southeast  Level FlightAware Approximate
Fri 04:18:00 AM 72.4786 19.9031 146° Southeast  Level FlightAware Approximate
Fri 04:19:00 AM 72.3643 20.1509 147° Southeast  Level FlightAware Approximate
Fri 04:20:00 AM 72.2497 20.3956 147° Southeast  Level FlightAware Approximate
Fri 04:21:00 AM 72.1347 20.6373 147° Southeast  Level FlightAware Approximate
Fri 04:22:00 AM 72.0195 20.8759 147° Southeast  Level FlightAware Approximate
Fri 04:23:00 AM 71.9040 21.1117 148° Southeast  Level FlightAware Approximate
Fri 04:24:00 AM 71.7882 21.3445 148° Southeast  Level FlightAware Approximate
Fri 04:25:00 AM 71.6721 21.5745 148° Southeast  Level FlightAware Approximate
Fri 04:25:47 AM 72.2550 24.3480 149° Southeast 504 580 37,000  Level FlightAware ADS-B
Fri 04:26:00 AM 71.5557 21.8017 148° Southeast  Level FlightAware Approximate
Fri 04:27:00 AM 71.4391 22.0261 148° Southeast  Level FlightAware Approximate
Fri 04:28:00 AM 71.3222 22.2479 149° Southeast  Level FlightAware Approximate
Fri 04:29:00 AM 71.2051 22.4669 149° Southeast  Level FlightAware Approximate
Fri 04:29:27 AM 71.8340 25.3270 144° Southeast 510 587 37,000  Level FlightAware ADS-B
Fri 04:30:37 AM 71.6960 25.6350 145° Southeast 512 589 37,000  Level FlightAware ADS-B
Fri 04:31:52 AM 71.5480 25.9600 145° Southeast 513 590 37,000  Level FlightAware ADS-B
Fri 04:33:02 AM 71.4100 26.2570 146° Southeast 513 590 37,000  Level FlightAware ADS-B
Fri 04:35:00 AM 71.1631 26.5879 157° South  Level Estimated
Fri 04:35:27 AM 71.1220 26.8600 157° South 521 600 37,000  Level FlightAware ADS-B
Fri 04:36:42 AM 70.9720 27.1660 146° Southeast 521 600 37,000  Level FlightAware ADS-B
Fri 04:37:52 AM 70.8320 27.4470 147° Southeast 518 596 37,000  Level FlightAware ADS-B
Fri 04:39:07 AM 70.6810 27.7450 147° Southeast 517 595 37,000  Level FlightAware ADS-B
Fri 04:39:52 AM 70.5900 27.9210 147° Southeast 517 595 37,000  Level FlightAware ADS-B
Fri 04:40:32 AM 70.5100 28.0750 147° Southeast 517 595 37,000  Level FlightAware ADS-B
Fri 04:41:17 AM 70.4190 28.2480 147° Southeast 516 594 37,000  Level FlightAware ADS-B
Fri 04:41:57 AM 70.3390 28.3990 148° Southeast 516 594 37,000  Level FlightAware ADS-B
Fri 04:42:37 AM 70.2580 28.5490 148° Southeast 516 594 37,000  Level FlightAware ADS-B
Fri 04:43:22 AM 70.1680 28.7150 148° Southeast 513 590 37,000  Level FlightAware ADS-B
Fri 04:44:02 AM 70.0880 28.8620 148° Southeast 512 589 37,000  Level FlightAware ADS-B
Fri 04:44:42 AM 70.0080 29.0070 148° Southeast 511 588 37,000  Level FlightAware ADS-B
Fri 04:45:27 AM 69.9180 29.1680 148° Southeast 510 587 37,000  Level FlightAware ADS-B
Fri 04:46:07 AM 69.8360 29.3130 149° Southeast 510 587 37,000  Level FlightAware ADS-B
Fri 04:46:52 AM 69.7470 29.4690 149° Southeast 509 586 37,000  Level FlightAware ADS-B
Fri 04:47:32 AM 69.6660 29.6100 149° Southeast 508 585 37,000  Level FlightAware ADS-B
Fri 04:48:17 AM 69.5760 29.7650 149° Southeast 507 583 37,000  Level FlightAware ADS-B
Fri 04:48:57 AM 69.4980 29.9000 149° Southeast 506 582 37,000  Level FlightAware ADS-B
Fri 04:49:32 AM 69.4180 30.0430 148° Southeast 509 586 37,000  Level FlightAware ADS-B
Fri 04:50:07 AM 69.3620 30.1630 143° Southeast 512 589 37,000  Level FlightAware ADS-B
Fri 04:50:47 AM 69.2890 30.3270 142° Southeast 513 590 37,000  Level FlightAware ADS-B
Fri 04:51:22 AM 69.2200 30.4810 142° Southeast 513 590 37,000  Level FlightAware ADS-B
Fri 04:52:12 AM 69.1250 30.6910 142° Southeast 514 592 37,000  Level FlightAware ADS-B
Fri 04:52:57 AM 69.0480 30.8610 142° Southeast 515 593 37,000  Level FlightAware ADS-B
Fri 04:53:37 AM 68.9710 31.0330 141° Southeast 516 594 37,000  Level FlightAware ADS-B
Fri 04:54:17 AM 68.9080 31.1750 141° Southeast 516 594 37,000  Level FlightAware ADS-B
Fri 04:54:57 AM 68.8450 31.3170 141° Southeast 516 594 37,000  Level FlightAware ADS-B
Fri 04:55:47 AM 68.7660 31.4930 141° Southeast 516 594 37,000  Level FlightAware ADS-B
Fri 04:56:27 AM 68.7030 31.6340 141° Southeast 516 594 37,000  Level FlightAware ADS-B
Fri 04:57:07 AM 68.6400 31.7750 141° Southeast 516 594 37,000  Level FlightAware ADS-B
Fri 04:57:47 AM 68.5770 31.9150 141° Southeast 516 594 37,000  Level FlightAware ADS-B
Fri 04:58:27 AM 68.5140 32.0540 141° Southeast 516 594 37,000  Level FlightAware ADS-B
Fri 04:59:07 AM 68.4500 32.1930 141° Southeast 516 594 37,000  Level FlightAware ADS-B
Fri 04:59:57 AM 68.3720 32.3670 141° Southeast 516 594 37,000  Level FlightAware ADS-B
Fri 05:00:37 AM 68.3090 32.5050 141° Southeast 516 594 37,000  Level FlightAware ADS-B
Fri 05:01:17 AM 68.2450 32.6430 141° Southeast 516 594 37,000  Level FlightAware ADS-B
Fri 05:01:57 AM 68.1820 32.7810 141° Southeast 516 594 37,000  Level FlightAware ADS-B
Fri 05:02:37 AM 68.1190 32.9180 141° Southeast 516 594 37,000  Level FlightAware ADS-B
Fri 05:05:00 AM 67.8012 33.1083 167° South  Level Estimated
Fri 05:05:52 AM 67.4150 32.8130 167° South 37,000  Level FlightAware ADS-B
Fri 05:06:00 AM 67.6679 33.1867 167° South  Level Estimated
Fri 05:06:32 AM 67.3330 32.8760 164° South 499 574 37,000  Level FlightAware ADS-B
Fri 05:07:37 AM 67.1870 32.9880 163° South 499 574 37,000  Level FlightAware ADS-B
Fri 05:08:32 AM 67.0470 33.0900 164° South 489 563 37,000  Level FlightAware ADS-B
Fri 05:09:27 AM 66.9340 33.1720 164° South 489 563 37,000  Level FlightAware ADS-B
Fri 05:10:12 AM 66.8350 33.2430 164° South 486 559 37,000  Level FlightAware ADS-B
Fri 05:10:52 AM 66.7460 33.3070 164° South 486 559 37,000  Level FlightAware ADS-B
Fri 05:11:37 AM 66.6590 33.3690 164° South 485 558 37,000  Level FlightAware ADS-B
Fri 05:12:27 AM 66.5370 33.4550 164° South 486 559 37,000  Level FlightAware ADS-B
Fri 05:13:07 AM 66.4460 33.5180 165° South 485 558 37,000  Level FlightAware ADS-B
Fri 05:13:52 AM 66.3860 33.5600 164° South 486 559 37,000  Level FlightAware ADS-B
Fri 05:14:37 AM 66.2970 33.6230 164° South 486 559 37,000  Level FlightAware ADS-B
Fri 05:15:17 AM 66.2240 33.6760 164° South 486 559 37,000  Level FlightAware ADS-B
Fri 05:15:57 AM 66.1510 33.7280 164° South 486 559 37,000  Level FlightAware ADS-B
Fri 05:16:37 AM 66.0770 33.7800 164° South 486 559 37,000  Level FlightAware ADS-B
Fri 05:17:27 AM 65.9850 33.8450 164° South 486 559 37,000  Level FlightAware ADS-B
Fri 05:18:07 AM 65.9120 33.8960 164° South 486 559 37,000  Level FlightAware ADS-B
Fri 05:18:47 AM 65.8380 33.9480 164° South 486 559 37,000  Level FlightAware ADS-B
Fri 05:19:27 AM 65.7650 33.9990 164° South 486 559 37,000  Level FlightAware ADS-B
Fri 05:20:07 AM 65.6910 34.0510 164° South 486 559 37,000  Level FlightAware ADS-B
Fri 05:20:57 AM 65.5990 34.1140 164° South 486 559 37,000  Level FlightAware ADS-B
Fri 05:21:37 AM 65.5260 34.1650 164° South 486 559 37,000  Level FlightAware ADS-B
Fri 05:22:17 AM 65.4520 34.2160 164° South 486 559 37,000  Level FlightAware ADS-B
Fri 05:22:57 AM 65.3790 34.2670 164° South 486 559 37,000  Level FlightAware ADS-B
Fri 05:23:37 AM 65.3050 34.3170 164° South 486 559 37,000  Level FlightAware ADS-B
Fri 05:25:12 AM 64.8420 34.5750 167° South 501 577 37,000  Level FlightAware ADS-B
Fri 05:25:57 AM 64.7500 34.6470 162° South 500 575 37,000  Level FlightAware ADS-B
Fri 05:26:47 AM 64.6330 34.7390 161° South 499 574 37,000  Level FlightAware ADS-B
Fri 05:27:27 AM 64.5460 34.8060 162° South 499 574 37,000  Level FlightAware ADS-B
Fri 05:28:27 AM 64.4210 34.9010 162° South 499 574 37,000  Level FlightAware ADS-B
Fri 05:29:17 AM 64.3100 34.9840 162° South 499 574 37,000  Level FlightAware ADS-B
Fri 05:29:57 AM 64.2220 35.0500 162° South 499 574 37,000  Level FlightAware ADS-B
Fri 05:30:42 AM 64.1230 35.1240 162° South 498 573 37,000  Level FlightAware ADS-B
Fri 05:31:27 AM 64.0200 35.1990 162° South 498 573 37,000  Level FlightAware ADS-B
Fri 05:32:07 AM 63.9350 35.2620 162° South 496 571 37,000  Level FlightAware ADS-B
Fri 05:32:52 AM 63.8360 35.3340 162° South 496 571 37,000  Level FlightAware ADS-B
Fri 05:33:32 AM 63.7470 35.3980 162° South 498 573 37,000  Level FlightAware ADS-B
Fri 05:34:12 AM 63.6670 35.4550 162° South 498 573 37,000  Level FlightAware ADS-B
Fri 05:34:57 AM 63.5610 35.5300 163° South 497 572 37,000  Level FlightAware ADS-B
Fri 05:35:37 AM 63.4750 35.5900 163° South 496 571 37,000  Level FlightAware ADS-B
Fri 05:36:22 AM 63.3780 35.6590 162° South 496 571 37,000  Level FlightAware ADS-B
Fri 05:37:02 AM 63.2890 35.7200 163° South 496 571 37,000  Level FlightAware ADS-B
Fri 05:37:37 AM 63.2150 35.7710 163° South 496 571 37,000  Level FlightAware ADS-B
Fri 05:38:17 AM 63.1250 35.8340 162° South 497 572 37,000  Level FlightAware ADS-B
Fri 05:39:17 AM 62.9940 35.9240 163° South 498 573 37,000  Level FlightAware ADS-B
Fri 05:39:57 AM 62.9080 35.9820 163° South 496 571 37,000  Level FlightAware ADS-B
Fri 05:40:37 AM 62.8190 36.0420 163° South 494 568 37,000  Level FlightAware ADS-B
Fri 05:41:12 AM 62.7480 36.0900 163° South 493 567 37,000  Level FlightAware ADS-B
Fri 05:42:42 AM 62.5490 36.2230 163° South 493 567 37,000  Level FlightAware ADS-B
Fri 05:43:27 AM 62.4550 36.2840 163° South 493 567 37,000  Level FlightAware ADS-B
Fri 05:44:12 AM 62.3560 36.3490 163° South 495 570 37,000  Level FlightAware ADS-B
Fri 05:45:07 AM 62.2520 36.4170 163° South 495 570 37,000  Level FlightAware ADS-B
Fri 05:45:47 AM 62.1770 36.4660 163° South 495 570 37,000  Level FlightAware ADS-B
Fri 05:46:42 AM 62.0330 36.5580 163° South 498 573 37,000  Level FlightAware ADS-B
Fri 05:47:22 AM 61.9420 36.6160 163° South 499 574 37,000  Level FlightAware ADS-B
Fri 05:48:02 AM 61.8670 36.6650 163° South 499 574 37,000  Level FlightAware ADS-B
Fri 05:48:42 AM 61.7920 36.7130 163° South 499 574 37,000  Level FlightAware ADS-B
Fri 05:49:22 AM 61.7170 36.7620 163° South 499 574 37,000  Level FlightAware ADS-B
Fri 05:49:27 AM 61.9930 36.5830 343° North 37,000  Level FlightAware ADS-B
Fri 05:52:00 AM 61.6468 36.6665 173° South  Level Estimated
Fri 05:53:00 AM 61.5110 36.6987 174° South  Level Estimated
Fri 05:54:00 AM 61.3752 36.7306 174° South  Level Estimated
Fri 05:55:00 AM 61.2394 36.7623 174° South  Level Estimated
Fri 05:56:00 AM 61.1036 36.7937 174° South  Level Estimated
Fri 05:57:00 AM 60.9678 36.8248 174° South  Level Estimated
Fri 05:58:00 AM 60.8320 36.8556 174° South  Level Estimated
Fri 05:59:00 AM 60.6962 36.8862 174° South  Level Estimated
Fri 06:00:00 AM 60.5603 36.9166 174° South  Level Estimated
Fri 06:01:00 AM 60.4245 36.9466 174° South  Level Estimated
Fri 06:02:00 AM 60.2886 36.9765 174° South  Level Estimated
Fri 06:02:22 AM 59.9230 37.7940 174° South 515 593 37,000  Level FlightAware ADS-B
Fri 06:03:17 AM 59.8010 37.8370 170° South 514 592 37,000  Level FlightAware ADS-B
Fri 06:03:57 AM 59.6920 37.8750 170° South 512 589 37,000 -200 Level FlightAware ADS-B
Fri 06:04:47 AM 59.5540 37.9240 170° South 516 594 36,700 -400 Descending FlightAware ADS-B
Fri 06:05:27 AM 59.4600 37.9570 170° South 512 589 36,400 -494 Descending FlightAware ADS-B
Fri 06:06:12 AM 59.3550 37.9930 170° South 506 582 36,000 -282 Descending FlightAware ADS-B
Fri 06:06:52 AM 59.2630 38.0150 173° South 497 572 36,000  Level FlightAware ADS-B
Fri 06:07:37 AM 59.1610 38.0130 181° South 492 566 36,000  Level FlightAware ADS-B
Fri 06:08:17 AM 59.0720 38.0070 182° South 490 564 36,000  Level FlightAware ADS-B
Fri 06:08:57 AM 58.9820 38.0000 182° South 491 565 36,000  Level FlightAware ADS-B
Fri 06:09:42 AM 58.8790 37.9930 182° South 493 567 36,000  Level FlightAware ADS-B
Fri 06:10:22 AM 58.7870 37.9870 182° South 495 570 36,000  Level FlightAware ADS-B
Fri 06:11:07 AM 58.6870 37.9780 183° South 495 570 36,000  Level FlightAware ADS-B
Fri 06:11:47 AM 58.5950 37.9640 185° South 495 570 36,000  Level FlightAware ADS-B
Fri 06:12:27 AM 58.5020 37.9470 185° South 496 571 36,000  Level FlightAware ADS-B
Fri 06:13:12 AM 58.4060 37.9310 185° South 497 572 36,000  Level FlightAware ADS-B
Fri 06:13:52 AM 58.3100 37.9140 185° South 497 572 36,000  Level FlightAware ADS-B
Fri 06:14:37 AM 58.2070 37.8970 185° South 495 570 36,000  Level FlightAware ADS-B
Fri 06:15:17 AM 58.1180 37.8810 185° South 494 568 36,000  Level FlightAware ADS-B
Fri 06:15:57 AM 58.0240 37.8660 185° South 493 567 36,000  Level FlightAware ADS-B
Fri 06:16:42 AM 57.9230 37.8490 185° South 492 566 36,000  Level FlightAware ADS-B
Fri 06:17:22 AM 57.8330 37.8340 185° South 490 564 36,000  Level FlightAware ADS-B
Fri 06:18:02 AM 57.7420 37.8190 185° South 490 564 36,000  Level FlightAware ADS-B
Fri 06:18:47 AM 57.6430 37.8030 185° South 488 562 36,000  Level FlightAware ADS-B
Fri 06:19:27 AM 57.5510 37.7870 185° South 489 563 36,000  Level FlightAware ADS-B
Fri 06:20:12 AM 57.4510 37.7700 185° South 489 563 36,000  Level FlightAware ADS-B
Fri 06:20:52 AM 57.3620 37.7550 185° South 490 564 36,000 -353 Level FlightAware ADS-B
Fri 06:21:37 AM 57.2590 37.7380 185° South 499 574 35,500 -1,624 Descending FlightAware ADS-B
Fri 06:22:17 AM 57.1690 37.7220 186° South 494 568 33,700 -3,150 Descending FlightAware ADS-B
Fri 06:22:57 AM 57.0770 37.7000 187° South 496 571 31,300 -2,800 Descending FlightAware ADS-B
Fri 06:23:32 AM 56.9970 37.6900 184° South 478 550 30,200 -2,400 Descending FlightAware ADS-B
Fri 06:24:22 AM 56.8920 37.7020 176° South 470 541 27,900 -3,000 Descending FlightAware ADS-B
Fri 06:25:02 AM 56.8060 37.7170 175° South 465 535 25,700 -3,106 Descending FlightAware ADS-B
Fri 06:25:47 AM 56.7090 37.7330 175° South 451 519 23,500 -2,965 Descending FlightAware ADS-B
Fri 06:26:27 AM 56.6270 37.7460 175° South 439 505 21,500 -2,894 Descending FlightAware ADS-B
Fri 06:27:12 AM 56.5370 37.7600 175° South 425 489 19,400 -2,753 Descending FlightAware ADS-B
Fri 06:27:52 AM 56.4600 37.7720 175° South 415 478 17,600 -2,400 Descending FlightAware ADS-B
Fri 06:28:37 AM 56.3770 37.7850 175° South 394 453 16,000 -2,118 Descending FlightAware ADS-B
Fri 06:29:17 AM 56.3050 37.7960 175° South 375 432 14,600 -2,175 Descending FlightAware ADS-B
Fri 06:29:57 AM 56.2390 37.8070 175° South 346 398 13,100 -1,835 Descending FlightAware ADS-B
Fri 06:30:42 AM 56.1720 37.8170 175° South 312 359 12,000 -776 Descending FlightAware ADS-B
Fri 06:31:22 AM 56.1160 37.8260 175° South 284 327 12,000  Level FlightAware ADS-B
Fri 06:32:02 AM 56.0650 37.8330 176° South 274 315 12,000  Level FlightAware ADS-B
Fri 06:32:47 AM 56.0090 37.8420 175° South 271 312 12,000 -200 Level FlightAware ADS-B
Fri 06:35:00 AM 55.7066 37.8746 177° South  Level Estimated
Fri 06:35:02 AM 55.8630 37.9160 177° South 258 297 11,400  Level FlightAware ADS-B
Fri 06:35:47 AM 55.8300 37.9920 128° Southeast 258 297 10,200 -1,360 Descending FlightAware ADS-B
Fri 06:36:17 AM 55.8080 38.0400 129° Southeast 252 290 9,700 -1,200 Descending FlightAware ADS-B
Fri 06:36:47 AM 55.7820 38.0850 136° Southeast 242 278 9,000 -1,350 Descending FlightAware ADS-B
Fri 06:36:57 AM 55.7710 38.0900 166° South 238 274 8,800 -1,500 Descending FlightAware ADS-B
Fri 06:37:27 AM 55.7420 38.0740 197° South 231 266 8,000 -1,733 Descending FlightAware ADS-B
Fri 06:37:42 AM 55.7320 38.0530 230° Southwest 230 265 7,500 -1,800 Descending FlightAware ADS-B
Fri 06:38:07 AM 55.7150 38.0140 232° Southwest 230 265 6,800 -1,418 Descending FlightAware ADS-B
Fri 06:38:37 AM 55.6960 37.9710 232° Southwest 222 255 6,200 -1,333 Descending FlightAware ADS-B
Fri 06:38:52 AM 55.6860 37.9480 232° Southwest 219 252 5,800 -1,350 Descending FlightAware ADS-B
Fri 06:39:17 AM 55.6710 37.9140 232° Southwest 201 231 5,300 -1,200 Descending FlightAware ADS-B
Fri 06:39:32 AM 55.6630 37.8960 232° Southwest 197 227 5,000 -1,467 Descending FlightAware ADS-B
Fri 06:40:02 AM 55.6450 37.8580 230° Southwest 197 227 4,200 -1,600 Descending FlightAware ADS-B
Fri 06:40:17 AM 55.6330 37.8460 209° Southwest 193 222 3,800 -1,440 Descending FlightAware ADS-B
Fri 06:40:27 AM 55.6250 37.8400 203° Southwest 196 226 3,600 -1,200 Descending FlightAware ADS-B
Fri 06:40:57 AM 55.6000 37.8220 202° Southwest 200 230 3,000 -1,100 Descending FlightAware ADS-B
Fri 06:41:27 AM 55.5740 37.8030 202° Southwest 197 227 2,500 -764 Descending FlightAware ADS-B
Fri 06:41:52 AM 55.5540 37.7880 203° Southwest 183 211 2,300 -450 Descending FlightAware ADS-B
Fri 06:42:07 AM 55.5420 37.7800 201° Southwest 177 204 2,200 -200 Descending FlightAware ADS-B
Fri 06:42:22 AM 55.5330 37.7740 201° Southwest 174 200 2,200 -150 Level FlightAware ADS-B
Fri 06:42:47 AM 55.5160 37.7940 146° Southeast 164 189 2,100 -150 Descending FlightAware ADS-B
Fri 06:43:02 AM 55.5080 37.8080 135° Southeast 167 192 2,100 -133 Level FlightAware ADS-B
Fri 06:43:32 AM 55.4900 37.8280 148° Southeast 154 177 2,000 -450 Descending FlightAware ADS-B
Fri 06:43:42 AM 55.4840 37.8350 147° Southeast 152 175 1,800 -900 Descending FlightAware ADS-B
Fri 06:44:12 AM 55.4660 37.8560 147° Southeast 146 168 1,400 -667 Descending FlightAware ADS-B
Fri 06:44:27 AM 55.4580 37.8660 145° Southeast 148 170 1,300 -600 Descending FlightAware ADS-B
Fri 06:44:52 AM 55.4450 37.8820 145° Southeast 142 163 1,000 -764 Descending FlightAware ADS-B
Fri 06:45:22 AM 55.4270 37.9030 146° Southeast 153 176 600 -436 Descending FlightAware ADS-B
Fri 06:45:47 AM 55.4140 37.9190 145° Southeast 153 176 600  Level FlightAware ADS-B
Fri 06:48:00 AM 55.4088 37.9063 161° South  Level Estimated
Fri 06:49:00 AM 55.4088 37.9063 161° South  Level Estimated
Fri 06:50:00 AM 55.4088 37.9063 161° South  Level Estimated
Fri 06:51:00 AM 55.4088 37.9063 161° South  Level Estimated
Fri 06:52:00 AM 55.4088 37.9063 161° South  Level Estimated
Fri 06:53:00 AM 55.4088 37.9063 161° South  Level Estimated
Fri 06:54:00 AM 55.4088 37.9063 161° South  Level Estimated
Fri 06:55:00 AM 55.4088 37.9063 161° South  Level Estimated

Login

Don't have an account? Register now (free) for customized features, flight alerts, and more!